Eureka, AK

8:05 AM AKST on December 28, 2014 (GMT -0900)
AKDOT Glenn Highway @ Gunsight Mountain MP 11 | Change Station
CLOSE
Current Station
Personal Weather Station
Location: Tatitlek, AK
Elevation: 3234 ft
Nearby Weather Stations

Elev 3234 ft 61.83 °N, 147.41 °W | Updated 35 minutes ago

Haze
Haze
8 °F
Feels Like -4 °F
N
8
Wind Variable Wind from NNE
Gusts 10.0 mph

Today
High -- | Low -- °F
--% Chance of Precip.
Yesterday
High -- | Low -- °F
Precip. -- in
10:12 AM 3:28 PM
Waxing Crescent, 49% visible
Pressure 30.83 in
Visibility 6.0 miles
Clouds Overcast 400 ft
Windchill -4 °F
Dew Point 6 °F
Humidity 90%
Rainfall 0.00 in
Snow Depth Not available.
UV 0 out of 12
Pollen Not available.
Air Quality Not available.
Flu Activity Not available.
METAR PAGK 281653Z AUTO 00000KT 6SM HZ OVC004 M19/M22 A3062 RMK AO2 SLP439 T11891217 TSNO

More Conditions Fewer Conditions

Pressure 30.83 in
Visibility 6.0 miles
Clouds Overcast 400 ft
Windchill -4 °F
Dew Point 6 °F
Humidity 90%
Rainfall 0.00 in
Snow Depth Not available.
UV 0 out of 12
Pollen Not available.
Air Quality Not available.
Flu Activity Not available.
METAR PAGK 281653Z AUTO 00000KT 6SM HZ OVC004 M19/M22 A3062 RMK AO2 SLP439 T11891217 TSNO

More Conditions Fewer Conditions

10-Day Weather Forecast

Almanac

Astronomy

Dec. 28, 2014 Rise Set
Actual Time
Civil Twilight
Nautical Twilight
Astronomical Twilight
Moon
Length of Visible Light
Length of Day
Tomorrow will be .
, % of the Moon is Illuminated

Today's Extremes

State Highs State Lows

Community

WunderPhotos

Upload Photos

1,781,349 photos uploaded!

WunderBlogs® & News

Nearby

Air Quality

  Air Quality AQ Index Pollutant
Not available.

Snow Depth

Station Depth Elevation

Earthquake Activity

City Distance Mag. Time & Date
Minimum magnitude displayed is 2.5.

Coastal Water Temperatures

Place Temperature

Nearby Weather Stations